EGDX - St Athan Royal AFB
Distance from station: E 5mi, 14km
Updated: 12/11/2017 2:50am
Few Clouds
Few Clouds
 Wind from N
Wind: N 13 mph , 20 km/h
Temperature: 36°F , 2°C
Wind Chill: 27°F , -3°C
Dew Point: 28°F , -2°C
Humidity: 75%
Barometer: 29.15 inHg , 987 hPa
Clouds: Few Clouds
Visibility: 6 miles , 10 km
Cloud details: Few Clouds 2500 ft
2017/12/11 10:50 EGDX 111050Z 36011KT 9999 FEW025 02/M02 Q0987 BLU